Time;durP1;ratioP1;P1;durP2;ratioP2;P2;SDS_P1;SDS_P2;PMS_P1;PMS_P2;Temp;Humidity;BMP_temperature;BMP_pressure;BME280_temperature;BME280_humidity;BME280_pressure;Samples;Min_cycle;Max_cycle;Signal;HPM_P1;HPM_P2
2023/04/22 00:00:05;;;;;;;57.22;31.70;;;;;;;-144.87;100.00;61487.56;4951630;29;20103;-80
2023/04/22 00:02:32;;;;;;;59.08;30.48;;;;;;;-144.87;100.00;61487.56;4945359;28;20115;-83
2023/04/22 00:05:00;;;;;;;58.53;31.00;;;;;;;-144.87;100.00;61487.56;4952803;28;20042;-82
2023/04/22 00:07:26;;;;;;;52.92;29.67;;;;;;;-144.87;100.00;61487.56;4952948;28;20103;-85
2023/04/22 00:09:52;;;;;;;52.92;29.42;;;;;;;-144.87;100.00;61487.56;4954074;28;20043;-80
2023/04/22 00:12:19;;;;;;;52.08;30.13;;;;;;;-144.87;100.00;61487.56;4913946;29;20466;-81
2023/04/22 00:14:45;;;;;;;53.45;29.98;;;;;;;-144.87;100.00;61487.56;4909031;29;20036;-81
2023/04/22 00:17:11;;;;;;;53.95;30.08;;;;;;;-144.87;100.00;61487.56;4942296;28;20044;-80
2023/04/22 00:19:38;;;;;;;59.78;31.77;;;;;;;-144.87;100.00;61487.56;4962030;28;20028;-82
2023/04/22 00:22:04;;;;;;;57.35;31.30;;;;;;;-144.87;100.00;61487.56;4947924;28;20032;-82
2023/04/22 00:24:30;;;;;;;54.05;30.15;;;;;;;-144.87;100.00;61487.56;4943808;28;20138;-80
2023/04/22 00:26:57;;;;;;;62.13;31.77;;;;;;;-144.87;100.00;61487.56;4940123;29;20036;-82
2023/04/22 00:29:26;;;;;;;62.55;31.35;;;;;;;-144.87;100.00;61487.56;4912738;29;20625;-83
2023/04/22 00:31:52;;;;;;;65.43;32.35;;;;;;;-144.87;100.00;61487.56;4949231;28;20436;-82
2023/04/22 00:34:18;;;;;;;70.75;33.40;;;;;;;-144.87;100.00;61487.56;4927901;29;20039;-81
2023/04/22 00:36:45;;;;;;;69.22;33.55;;;;;;;-144.87;100.00;61487.56;4912497;29;21007;-82
2023/04/22 00:39:11;;;;;;;63.75;31.33;;;;;;;-144.87;100.00;61487.56;4952840;28;20459;-81
2023/04/22 00:41:41;;;;;;;75.35;35.67;;;;;;;-144.87;100.00;61487.56;4912771;29;20087;-81
2023/04/22 00:44:10;;;;;;;75.80;34.10;;;;;;;-144.87;100.00;61487.56;4919433;29;20118;-82
2023/04/22 00:46:39;;;;;;;68.43;31.15;;;;;;;-144.87;100.00;61487.56;4949403;28;20114;-80
2023/04/22 00:49:06;;;;;;;51.50;27.15;;;;;;;-144.87;100.00;61487.56;4929914;29;20031;-82
2023/04/22 00:51:33;;;;;;;70.60;31.63;;;;;;;-144.87;100.00;61487.56;4933007;29;20404;-82
2023/04/22 00:54:03;;;;;;;63.05;32.50;;;;;;;-144.87;100.00;61487.56;4913673;29;20102;-82
2023/04/22 00:56:30;;;;;;;70.68;32.03;;;;;;;-144.87;100.00;61487.56;4910175;29;20035;-83
2023/04/22 00:58:57;;;;;;;61.78;29.02;;;;;;;-144.87;100.00;61487.56;4931261;29;20044;-82
2023/04/22 01:01:24;;;;;;;73.30;32.45;;;;;;;-144.87;100.00;61487.56;4946897;28;20034;-82
2023/04/22 01:03:51;;;;;;;49.55;24.42;;;;;;;-144.87;100.00;61487.56;4931803;29;20047;-81
2023/04/22 01:06:22;;;;;;;92.35;21.08;;;;;;;-144.87;100.00;61487.56;4931157;29;20460;-81
2023/04/22 01:08:48;;;;;;;122.38;21.75;;;;;;;-144.87;100.00;61487.56;4936449;29;20131;-80
2023/04/22 01:11:14;;;;;;;47.15;22.70;;;;;;;-144.87;100.00;61487.56;4915853;29;20086;-82
2023/04/22 01:13:41;;;;;;;49.72;24.48;;;;;;;-144.87;100.00;61487.56;4919383;29;20520;-82
2023/04/22 01:16:08;;;;;;;218.75;30.52;;;;;;;-144.87;100.00;61487.56;4935154;29;20040;-82
2023/04/22 01:18:37;;;;;;;90.53;24.40;;;;;;;-144.87;100.00;61487.56;4931083;29;20047;-82
2023/04/22 01:21:05;;;;;;;44.10;23.50;;;;;;;-144.87;100.00;61487.56;4934533;29;20543;-81
2023/04/22 01:23:32;;;;;;;57.13;25.52;;;;;;;-144.87;100.00;61487.56;4949076;28;20428;-82
2023/04/22 01:26:00;;;;;;;51.85;24.35;;;;;;;-144.87;100.00;61487.56;4920205;29;20043;-82
2023/04/22 01:28:26;;;;;;;159.90;31.48;;;;;;;-144.87;100.00;61487.56;4937747;29;20130;-83
2023/04/22 01:30:53;;;;;;;92.25;30.05;;;;;;;-144.87;100.00;61487.56;4919483;29;20130;-81
2023/04/22 01:33:19;;;;;;;86.70;30.45;;;;;;;-144.87;100.00;61487.56;4931407;29;20838;-81
2023/04/22 01:35:46;;;;;;;44.25;23.08;;;;;;;-144.87;100.00;61487.56;4898661;29;20473;-81
2023/04/22 01:38:14;;;;;;;60.65;21.25;;;;;;;-144.87;100.00;61487.56;4914020;29;20381;-81
2023/04/22 01:40:40;;;;;;;271.48;26.38;;;;;;;-144.87;100.00;61487.56;4934139;29;20054;-82
2023/04/22 01:43:07;;;;;;;253.35;31.98;;;;;;;-144.87;100.00;61487.56;4937959;29;20099;-81
2023/04/22 01:45:33;;;;;;;75.50;29.33;;;;;;;-144.87;100.00;61487.56;4918023;29;20085;-82
2023/04/22 01:48:00;;;;;;;96.32;37.95;;;;;;;-144.87;100.00;61487.56;4934364;29;20457;-81
2023/04/22 01:50:26;;;;;;;95.43;39.75;;;;;;;-144.87;100.00;61487.56;4916738;29;20036;-82
2023/04/22 01:52:53;;;;;;;180.15;45.83;;;;;;;-144.87;100.00;61487.56;4923753;29;20139;-82
2023/04/22 01:55:21;;;;;;;131.13;45.38;;;;;;;-144.87;100.00;61487.56;4916673;29;20433;-81
2023/04/22 01:57:47;;;;;;;70.60;30.75;;;;;;;-144.87;100.00;61487.56;4937035;29;20099;-82
2023/04/22 02:00:14;;;;;;;130.57;27.50;;;;;;;-144.87;100.00;61487.56;4932488;29;20035;-81
2023/04/22 02:02:42;;;;;;;603.22;48.53;;;;;;;-144.87;100.00;61487.56;4917177;29;20553;-83
2023/04/22 02:05:09;;;;;;;213.98;38.17;;;;;;;-144.87;100.00;61487.56;4925055;29;20031;-82
2023/04/22 02:07:35;;;;;;;120.00;45.35;;;;;;;-144.87;100.00;61487.56;4941081;29;20358;-83
2023/04/22 02:10:03;;;;;;;108.28;40.78;;;;;;;-144.87;100.00;61487.56;4933399;29;20048;-81
2023/04/22 02:12:31;;;;;;;92.10;38.58;;;;;;;-144.87;100.00;61487.56;4920408;29;20069;-83
2023/04/22 02:14:57;;;;;;;101.85;39.42;;;;;;;-144.87;100.00;61487.56;4932750;29;20573;-82
2023/04/22 02:17:25;;;;;;;123.85;46.55;;;;;;;-144.87;100.00;61487.56;4916269;29;20098;-82
2023/04/22 02:19:51;;;;;;;110.07;44.10;;;;;;;-144.87;100.00;61487.56;4915805;29;20055;-82
2023/04/22 02:22:17;;;;;;;126.00;44.70;;;;;;;-144.87;100.00;61487.56;4916806;29;20039;-82
2023/04/22 02:24:44;;;;;;;102.72;41.75;;;;;;;-144.87;100.00;61487.56;4940245;29;20503;-82
2023/04/22 02:27:10;;;;;;;91.57;38.00;;;;;;;-144.87;100.00;61487.56;4934515;29;20512;-82
2023/04/22 02:29:36;;;;;;;104.68;42.30;;;;;;;-144.87;100.00;61487.56;4918809;29;20035;-82
2023/04/22 02:32:03;;;;;;;116.15;40.75;;;;;;;-144.87;100.00;61487.56;4942089;29;20035;-82
2023/04/22 02:34:29;;;;;;;111.40;41.97;;;;;;;-144.87;100.00;61487.56;4902727;29;20039;-82
2023/04/22 02:36:55;;;;;;;125.15;46.65;;;;;;;-144.87;100.00;61487.56;4926628;29;20032;-82
2023/04/22 02:39:21;;;;;;;113.10;42.67;;;;;;;-144.87;100.00;61487.56;4931084;29;20040;-82
2023/04/22 02:41:48;;;;;;;128.68;43.10;;;;;;;-144.87;100.00;61487.56;4907023;29;20149;-82
2023/04/22 02:44:15;;;;;;;121.38;43.55;;;;;;;-144.87;100.00;61487.56;4942692;29;20407;-82
2023/04/22 02:46:41;;;;;;;107.45;41.85;;;;;;;-144.87;100.00;61487.56;4931715;29;20190;-83
2023/04/22 02:49:07;;;;;;;134.75;46.85;;;;;;;-144.87;100.00;61487.56;4913304;29;20040;-82
2023/04/22 02:51:36;;;;;;;131.65;45.67;;;;;;;-144.87;100.00;61487.56;4936081;28;20353;-83
2023/04/22 02:54:02;;;;;;;113.15;41.97;;;;;;;-144.87;100.00;61487.56;4924747;29;20433;-82
2023/04/22 02:56:28;;;;;;;100.70;38.40;;;;;;;-144.87;100.00;61487.56;4941155;29;20039;-83
2023/04/22 02:58:55;;;;;;;92.28;34.10;;;;;;;-144.87;100.00;61487.56;4907299;29;20054;-81
2023/04/22 03:01:21;;;;;;;82.15;33.08;;;;;;;-144.87;100.00;61487.56;4925225;29;20036;-81
2023/04/22 03:03:47;;;;;;;72.85;28.83;;;;;;;-144.87;100.00;61487.56;4924912;29;20036;-82
2023/04/22 03:06:20;;;;;;;58.22;27.48;;;;;;;-144.87;100.00;61487.56;4930323;29;20038;-82
2023/04/22 03:08:47;;;;;;;55.58;25.40;;;;;;;-144.87;100.00;61487.56;4915385;29;20039;-82
2023/04/22 03:11:13;;;;;;;48.90;23.73;;;;;;;-144.87;100.00;61487.56;4929039;29;20490;-81
2023/04/22 03:13:41;;;;;;;52.58;25.50;;;;;;;-144.87;100.00;61487.56;4932100;29;20035;-82
2023/04/22 03:16:07;;;;;;;64.20;27.05;;;;;;;-144.87;100.00;61487.56;4891478;29;20043;-82
2023/04/22 03:18:34;;;;;;;71.30;27.45;;;;;;;-144.87;100.00;61487.56;4938544;29;20138;-82
2023/04/22 03:21:00;;;;;;;97.45;27.90;;;;;;;-144.87;100.00;61487.56;4913981;29;20035;-82
2023/04/22 03:23:30;;;;;;;82.88;28.95;;;;;;;-144.87;100.00;61487.56;4930935;29;20031;-82
2023/04/22 03:25:56;;;;;;;74.78;28.88;;;;;;;-144.87;100.00;61487.56;4907262;29;20194;-81
2023/04/22 03:28:22;;;;;;;60.72;26.77;;;;;;;-144.87;100.00;61487.56;4932602;29;20035;-82
2023/04/22 03:30:49;;;;;;;58.80;27.60;;;;;;;-144.87;100.00;61487.56;4930792;29;20054;-81
2023/04/22 03:33:16;;;;;;;63.03;27.63;;;;;;;-144.87;100.00;61487.56;4914474;29;20031;-79
2023/04/22 03:35:49;;;;;;;57.03;26.77;;;;;;;-144.87;100.00;61487.56;4915801;29;20122;-77
2023/04/22 03:38:16;;;;;;;66.10;28.60;;;;;;;-144.87;100.00;61487.56;4922348;29;20068;-79
2023/04/22 03:40:43;;;;;;;58.05;26.90;;;;;;;-144.87;100.00;61487.56;4897554;29;20122;-79
2023/04/22 03:43:19;;;;;;;65.10;28.38;;;;;;;-144.87;100.00;61487.56;4924362;29;20055;-79
2023/04/22 03:45:54;;;;;;;67.47;27.98;;;;;;;-144.87;100.00;61487.56;4915642;29;20036;-77
2023/04/22 03:48:24;;;;;;;59.42;26.77;;;;;;;-144.87;100.00;61487.56;4930792;29;20027;-78
2023/04/22 03:50:53;;;;;;;73.07;29.90;;;;;;;-144.87;100.00;61487.56;4932995;28;20067;-79
2023/04/22 03:53:19;;;;;;;91.88;32.65;;;;;;;-144.87;100.00;61487.56;4896909;29;20066;-77
2023/04/22 03:55:45;;;;;;;78.57;30.90;;;;;;;-144.87;100.00;61487.56;4936284;29;20382;-79
2023/04/22 03:58:15;;;;;;;97.45;32.88;;;;;;;-144.87;100.00;61487.56;4919731;29;20039;-77
2023/04/22 04:00:41;;;;;;;106.75;34.95;;;;;;;-144.87;100.00;61487.56;4933636;29;20106;-78
2023/04/22 04:03:14;;;;;;;109.40;36.78;;;;;;;-144.87;100.00;61487.56;4935472;29;20063;-77
2023/04/22 04:05:40;;;;;;;120.93;36.92;;;;;;;-144.87;100.00;61487.56;4933430;29;20452;-77
2023/04/22 04:08:08;;;;;;;146.77;40.65;;;;;;;-144.87;100.00;61487.56;4938553;29;20063;-77
2023/04/22 04:10:35;;;;;;;161.30;41.72;;;;;;;-144.87;100.00;61487.56;4922994;29;20044;-77
2023/04/22 04:13:02;;;;;;;227.07;46.50;;;;;;;-144.87;100.00;61487.56;4921192;29;20122;-79
2023/04/22 04:15:36;;;;;;;141.18;42.05;;;;;;;-144.87;100.00;61487.56;4921883;29;20397;-79
2023/04/22 04:18:03;;;;;;;117.53;39.38;;;;;;;-144.87;100.00;61487.56;4928106;29;20016;-79
2023/04/22 04:20:32;;;;;;;98.25;36.65;;;;;;;-144.87;100.00;61487.56;4943463;29;20047;-80
2023/04/22 04:22:58;;;;;;;93.25;36.85;;;;;;;-144.87;100.00;61487.56;4938703;29;20035;-79
2023/04/22 04:25:25;;;;;;;76.60;33.53;;;;;;;-144.87;100.00;61487.56;4924035;28;20016;-79
2023/04/22 04:27:52;;;;;;;75.60;31.98;;;;;;;-144.87;100.00;61487.56;4925044;29;20043;-78
2023/04/22 04:30:20;;;;;;;79.05;33.58;;;;;;;-144.87;100.00;61487.56;4952682;28;20123;-79
2023/04/22 04:32:52;;;;;;;81.82;36.17;;;;;;;-144.87;100.00;61487.56;4920656;29;20122;-77
2023/04/22 04:35:19;;;;;;;81.03;36.17;;;;;;;-144.87;100.00;61487.56;4928408;29;20513;-79
2023/04/22 04:37:53;;;;;;;78.30;35.30;;;;;;;-144.87;100.00;61487.56;4933739;29;20046;-80
2023/04/22 04:40:20;;;;;;;93.45;37.97;;;;;;;-144.87;100.00;61487.56;4922476;29;20044;-78
2023/04/22 04:43:07;;;;;;;87.10;38.45;;;;;;;-144.87;100.00;61487.56;4932872;29;20129;-78
2023/04/22 04:45:39;;;;;;;93.75;38.53;;;;;;;-144.87;100.00;61487.56;4903408;29;20740;-79
2023/04/22 04:48:06;;;;;;;93.28;38.42;;;;;;;-144.87;100.00;61487.56;4934969;29;20090;-80
2023/04/22 04:50:36;;;;;;;90.93;38.45;;;;;;;-144.87;100.00;61487.56;4931578;29;20040;-79
2023/04/22 04:53:02;;;;;;;104.15;43.08;;;;;;;-144.87;100.00;61487.56;4933006;29;20126;-77
2023/04/22 04:55:36;;;;;;;99.10;40.25;;;;;;;-144.87;100.00;61487.56;4915292;29;20052;-79
2023/04/22 04:58:09;;;;;;;99.78;41.55;;;;;;;-144.87;100.00;61487.56;4919296;29;20085;-77
2023/04/22 05:00:36;;;;;;;105.18;42.55;;;;;;;-144.87;100.00;61487.56;4934525;29;20115;-79
2023/04/22 05:03:02;;;;;;;107.43;44.15;;;;;;;-144.87;100.00;61487.56;4918863;29;20035;-78
2023/04/22 05:05:29;;;;;;;116.00;44.17;;;;;;;-144.87;100.00;61487.56;4930479;29;20163;-80
2023/04/22 05:07:56;;;;;;;120.35;44.88;;;;;;;-144.87;100.00;61487.56;4933025;29;20031;-78
2023/04/22 05:10:23;;;;;;;107.75;45.15;;;;;;;-144.87;100.00;61487.56;4934011;29;20033;-79
2023/04/22 05:12:50;;;;;;;112.00;44.47;;;;;;;-144.87;100.00;61487.56;4945977;28;20122;-79
2023/04/22 05:15:21;;;;;;;99.72;41.30;;;;;;;-144.87;100.00;61487.56;4918788;29;20452;-79
2023/04/22 05:17:47;;;;;;;121.18;47.13;;;;;;;-144.87;100.00;61487.56;4930457;29;20036;-80
2023/04/22 05:20:14;;;;;;;131.88;51.25;;;;;;;-144.87;100.00;61487.56;4917193;29;20075;-79
2023/04/22 05:22:42;;;;;;;135.73;49.80;;;;;;;-144.87;100.00;61487.56;4918273;29;20127;-80
2023/04/22 05:25:09;;;;;;;149.00;51.80;;;;;;;-144.87;100.00;61487.56;4918300;29;20054;-79
2023/04/22 05:27:36;;;;;;;142.85;50.38;;;;;;;-144.87;100.00;61487.56;4916678;29;20054;-79
2023/04/22 05:30:04;;;;;;;148.77;52.33;;;;;;;-144.87;100.00;61487.56;4905295;29;20409;-80
2023/04/22 05:32:33;;;;;;;143.52;51.63;;;;;;;-144.87;100.00;61487.56;4925335;29;20149;-79
2023/04/22 05:34:59;;;;;;;138.73;51.83;;;;;;;-144.87;100.00;61487.56;4913059;29;20102;-79
2023/04/22 05:37:25;;;;;;;135.43;51.47;;;;;;;-144.87;100.00;61487.56;4925236;29;20115;-80
2023/04/22 05:39:52;;;;;;;131.07;53.13;;;;;;;-144.87;100.00;61487.56;4901799;29;20054;-79
2023/04/22 05:42:18;;;;;;;147.38;53.38;;;;;;;-144.87;100.00;61487.56;4915471;29;20051;-80
2023/04/22 05:44:45;;;;;;;138.23;52.75;;;;;;;-144.87;100.00;61487.56;4928878;29;20078;-78
2023/04/22 05:47:12;;;;;;;154.05;56.35;;;;;;;-144.87;100.00;61487.56;4914329;29;20454;-79
2023/04/22 05:49:38;;;;;;;146.05;54.08;;;;;;;-144.87;100.00;61487.56;4931362;29;20130;-79
2023/04/22 05:52:04;;;;;;;140.15;55.88;;;;;;;-144.87;100.00;61487.56;4915555;29;20471;-78
2023/04/22 05:54:41;;;;;;;144.13;55.42;;;;;;;-144.87;100.00;61487.56;4919783;29;20040;-79
2023/04/22 05:57:08;;;;;;;147.40;55.67;;;;;;;-144.87;100.00;61487.56;4927732;29;20032;-78
2023/04/22 05:59:34;;;;;;;135.45;54.47;;;;;;;-144.87;100.00;61487.56;4924684;29;20043;-79
2023/04/22 06:02:01;;;;;;;149.55;55.95;;;;;;;-144.87;100.00;61487.56;4919146;29;20043;-78
2023/04/22 06:04:27;;;;;;;154.10;57.05;;;;;;;-144.87;100.00;61487.56;4898996;29;20051;-81
2023/04/22 06:06:54;;;;;;;151.82;57.55;;;;;;;-144.87;100.00;61487.56;4933673;29;20043;-78
2023/04/22 06:09:21;;;;;;;146.80;54.83;;;;;;;-144.87;100.00;61487.56;4910468;29;20039;-78
2023/04/22 06:11:47;;;;;;;151.07;59.47;;;;;;;-144.87;100.00;61487.56;4921057;29;20039;-78
2023/04/22 06:14:14;;;;;;;139.43;54.50;;;;;;;-144.87;100.00;61487.56;4914995;29;20397;-79
2023/04/22 06:16:42;;;;;;;146.25;56.88;;;;;;;-144.87;100.00;61487.56;4915601;29;20049;-79
2023/04/22 06:19:08;;;;;;;131.32;54.72;;;;;;;-144.87;100.00;61487.56;4901963;29;20032;-77
2023/04/22 06:21:37;;;;;;;141.00;56.10;;;;;;;-144.87;100.00;61487.56;4898980;29;20043;-78
2023/04/22 06:24:04;;;;;;;129.43;55.22;;;;;;;-144.87;100.00;61487.56;4925691;29;20145;-78
2023/04/22 06:26:31;;;;;;;134.85;57.20;;;;;;;-144.87;100.00;61487.56;4918648;29;20031;-77
2023/04/22 06:28:57;;;;;;;141.18;58.72;;;;;;;-144.87;100.00;61487.56;4915421;29;20131;-76
2023/04/22 06:31:24;;;;;;;132.60;58.33;;;;;;;-144.87;100.00;61487.56;4925496;29;20131;-77
2023/04/22 06:33:50;;;;;;;135.43;59.50;;;;;;;-144.87;100.00;61487.56;4928175;29;20058;-77
2023/04/22 06:36:17;;;;;;;136.18;59.90;;;;;;;-144.87;100.00;61487.56;4897974;29;20043;-78
2023/04/22 06:38:49;;;;;;;134.57;60.05;;;;;;;-144.87;100.00;61487.56;4930880;29;20496;-78
2023/04/22 06:41:39;;;;;;;136.82;60.08;;;;;;;-144.87;100.00;61487.56;4928924;29;20406;-78
2023/04/22 06:44:18;;;;;;;135.30;62.88;;;;;;;-144.87;100.00;61487.56;4934842;29;20486;-78
2023/04/22 06:47:08;;;;;;;127.30;61.70;;;;;;;-144.87;100.00;61487.56;4934691;29;20050;-76
2023/04/22 06:49:44;;;;;;;134.27;62.92;;;;;;;-144.87;100.00;61487.56;4920271;29;20122;-76
2023/04/22 06:52:33;;;;;;;139.85;63.20;;;;;;;-144.87;100.00;61487.56;4930804;29;20047;-79
2023/04/22 06:55:03;;;;;;;119.22;61.88;;;;;;;-144.87;100.00;61487.56;4919226;29;20066;-76
2023/04/22 06:57:30;;;;;;;127.13;63.97;;;;;;;-144.87;100.00;61487.56;4934848;29;20408;-80
2023/04/22 06:59:56;;;;;;;126.30;65.45;;;;;;;-144.87;100.00;61487.56;4952246;29;20062;-78
2023/04/22 07:02:25;;;;;;;129.38;64.10;;;;;;;-144.87;100.00;61487.56;4934036;29;20094;-77
2023/04/22 07:04:51;;;;;;;124.20;66.13;;;;;;;-144.87;100.00;61487.56;4950804;29;20124;-77
2023/04/22 07:07:18;;;;;;;126.50;67.85;;;;;;;-144.87;100.00;61487.56;4934375;29;20083;-78
2023/04/22 07:09:44;;;;;;;131.40;72.60;;;;;;;-144.87;100.00;61487.56;4903201;29;20039;-77
2023/04/22 07:12:11;;;;;;;120.72;68.18;;;;;;;-144.87;100.00;61487.56;4934824;29;20442;-78
2023/04/22 07:14:41;;;;;;;95.63;59.35;;;;;;;-144.87;100.00;61487.56;4934697;29;20043;-76
2023/04/22 07:17:07;;;;;;;98.00;60.27;;;;;;;-144.87;100.00;61487.56;4949130;29;20101;-76
2023/04/22 07:19:33;;;;;;;90.80;57.45;;;;;;;-144.87;100.00;61487.56;4934227;29;20036;-78
2023/04/22 07:22:00;;;;;;;80.53;51.80;;;;;;;-144.87;100.00;61487.56;4934537;29;20059;-78
2023/04/22 07:24:26;;;;;;;61.40;43.72;;;;;;;-144.87;100.00;61487.56;4934332;29;20031;-77
2023/04/22 07:26:52;;;;;;;52.95;39.15;;;;;;;-144.87;100.00;61487.56;4951415;28;20376;-76
2023/04/22 07:29:18;;;;;;;49.45;36.67;;;;;;;-144.87;100.00;61487.56;4934554;29;20043;-77
2023/04/22 07:31:45;;;;;;;47.13;36.28;;;;;;;-144.87;100.00;61487.56;4948036;29;20043;-77
2023/04/22 07:34:11;;;;;;;85.30;35.92;;;;;;;-144.87;100.00;61487.56;4950179;28;20520;-77
2023/04/22 07:36:37;;;;;;;45.17;33.45;;;;;;;-144.87;100.00;61487.56;4933997;29;20420;-77
2023/04/22 07:39:04;;;;;;;36.72;29.58;;;;;;;-144.87;100.00;61487.56;4918341;29;20043;-77
2023/04/22 07:41:30;;;;;;;33.17;25.98;;;;;;;-144.87;100.00;61487.56;4951120;29;20047;-82
2023/04/22 07:43:57;;;;;;;31.58;24.52;;;;;;;-144.87;100.00;61487.56;4950413;28;20039;-76
2023/04/22 07:46:23;;;;;;;46.20;27.75;;;;;;;-144.87;100.00;61487.56;4933648;28;20070;-76
2023/04/22 07:48:49;;;;;;;27.90;21.70;;;;;;;-144.87;100.00;61487.56;4934316;29;20393;-76
2023/04/22 07:51:16;;;;;;;28.75;21.63;;;;;;;-144.87;100.00;61487.56;4934433;29;20393;-77
2023/04/22 07:53:42;;;;;;;28.10;21.80;;;;;;;-144.87;100.00;61487.56;4918865;29;20039;-77
2023/04/22 07:56:08;;;;;;;25.52;21.23;;;;;;;-144.87;100.00;61487.56;4934788;29;20053;-77
2023/04/22 07:58:34;;;;;;;26.73;22.08;;;;;;;-144.87;100.00;61487.56;4934224;29;20413;-77
2023/04/22 08:01:02;;;;;;;37.50;21.60;;;;;;;-144.87;100.00;61487.56;4950314;28;20047;-76
2023/04/22 08:03:28;;;;;;;24.10;20.35;;;;;;;-144.87;100.00;61487.56;4934395;29;20054;-80
2023/04/22 08:05:57;;;;;;;24.05;20.58;;;;;;;-144.87;100.00;61487.56;4918931;29;20063;-77
2023/04/22 08:08:25;;;;;;;25.95;19.73;;;;;;;-144.87;100.00;61487.56;4932810;29;20051;-76
2023/04/22 08:10:51;;;;;;;23.02;19.23;;;;;;;-144.87;100.00;61487.56;4917397;29;20557;-76
2023/04/22 08:13:17;;;;;;;25.85;18.30;;;;;;;-144.87;100.00;61487.56;4933639;29;20070;-77
2023/04/22 08:15:43;;;;;;;21.20;16.67;;;;;;;-144.87;100.00;61487.56;4913255;29;20043;-77
2023/04/22 08:18:10;;;;;;;18.70;15.15;;;;;;;-144.87;100.00;61487.56;4928834;29;20057;-78
2023/04/22 08:20:36;;;;;;;18.17;14.93;;;;;;;-144.87;100.00;61487.56;4927849;29;20066;-77
2023/04/22 08:23:03;;;;;;;16.73;14.50;;;;;;;-144.87;100.00;61487.56;4931945;29;20044;-77
2023/04/22 08:25:30;;;;;;;17.75;15.40;;;;;;;-144.87;100.00;61487.56;4917141;29;20046;-79
2023/04/22 08:27:56;;;;;;;17.55;14.45;;;;;;;-144.87;100.00;61487.56;4948573;29;20113;-77
2023/04/22 08:30:23;;;;;;;18.45;14.50;;;;;;;-144.87;100.00;61487.56;4916558;29;20404;-76
2023/04/22 08:32:49;;;;;;;15.57;13.85;;;;;;;-144.87;100.00;61487.56;4934079;29;20067;-78
2023/04/22 08:35:15;;;;;;;17.50;13.27;;;;;;;-144.87;100.00;61487.56;4946408;28;20035;-77
2023/04/22 08:37:41;;;;;;;15.02;12.50;;;;;;;-144.87;100.00;61487.56;4929328;29;20082;-76
2023/04/22 08:40:09;;;;;;;15.15;12.23;;;;;;;-144.87;100.00;61487.56;4947980;29;20146;-77
2023/04/22 08:42:36;;;;;;;14.30;12.32;;;;;;;-144.87;100.00;61487.56;4951267;29;20043;-76
2023/04/22 08:45:04;;;;;;;15.45;13.07;;;;;;;-144.87;100.00;61487.56;4919874;29;20071;-77
2023/04/22 08:47:34;;;;;;;14.48;12.02;;;;;;;-144.87;100.00;61487.56;4944924;29;20097;-76
2023/04/22 08:50:03;;;;;;;14.45;11.43;;;;;;;-144.87;100.00;61487.56;4951816;29;20058;-76
2023/04/22 08:52:32;;;;;;;14.63;11.68;;;;;;;-144.87;100.00;61487.56;4949404;29;20090;-78
2023/04/22 08:54:59;;;;;;;13.32;11.93;;;;;;;-144.87;100.00;61487.56;4940849;29;20386;-76
2023/04/22 08:57:25;;;;;;;15.10;11.80;;;;;;;-144.87;100.00;61487.56;4954720;29;20047;-76
2023/04/22 08:59:54;;;;;;;15.07;11.45;;;;;;;-144.87;100.00;61487.56;4927107;29;20433;-75
2023/04/22 09:02:21;;;;;;;14.75;12.35;;;;;;;-144.87;100.00;61487.56;4937771;29;20035;-75
2023/04/22 09:04:48;;;;;;;13.63;11.77;;;;;;;-144.87;100.00;61487.56;4922510;29;20308;-75
2023/04/22 09:07:31;;;;;;;14.13;12.07;;;;;;;-144.87;100.00;61487.56;4919155;29;20445;-76
2023/04/22 09:09:58;;;;;;;15.93;12.10;;;;;;;-144.87;100.00;61487.56;4935608;29;20046;-75
2023/04/22 09:12:25;;;;;;;13.15;11.70;;;;;;;-144.87;100.00;61487.56;4940803;29;20098;-76
2023/04/22 09:14:53;;;;;;;15.80;12.02;;;;;;;-144.87;100.00;61487.56;4946448;29;20075;-76
2023/04/22 09:17:31;;;;;;;13.77;12.07;;;;;;;-144.87;100.00;61487.56;4947800;28;20040;-76
2023/04/22 09:20:03;;;;;;;15.32;11.45;;;;;;;-144.87;100.00;61487.56;4919344;29;20036;-76
2023/04/22 09:22:42;;;;;;;14.15;10.98;;;;;;;-144.87;100.00;61487.56;4911760;29;20106;-76
2023/04/22 09:25:16;;;;;;;13.65;11.23;;;;;;;-144.87;100.00;61487.56;4938260;29;20023;-76
2023/04/22 09:27:42;;;;;;;13.40;11.95;;;;;;;-144.87;100.00;61487.56;4942137;28;20031;-77
2023/04/22 09:30:09;;;;;;;13.45;11.85;;;;;;;-144.87;100.00;61487.56;4944994;29;20046;-77
2023/04/22 09:32:35;;;;;;;20.83;13.38;;;;;;;-144.87;100.00;61487.56;4965357;28;20417;-77
2023/04/22 09:35:02;;;;;;;11.45;10.25;;;;;;;-144.87;100.00;61487.56;4922368;29;20044;-78
2023/04/22 09:37:29;;;;;;;15.40;12.30;;;;;;;-144.87;100.00;61487.56;4933867;29;20143;-78
2023/04/22 09:39:56;;;;;;;27.42;15.68;;;;;;;-144.87;100.00;61487.56;4933102;29;20034;-76
2023/04/22 09:42:23;;;;;;;19.30;12.38;;;;;;;-144.87;100.00;61487.56;4933928;29;20059;-77
2023/04/22 09:44:51;;;;;;;13.70;10.93;;;;;;;-144.87;100.00;61487.56;4900951;29;20113;-78
2023/04/22 09:47:25;;;;;;;13.48;12.07;;;;;;;-144.87;100.00;61487.56;4933631;29;20085;-77
2023/04/22 09:49:51;;;;;;;12.50;10.82;;;;;;;-144.87;100.00;61487.56;4932494;29;20039;-77
2023/04/22 09:52:26;;;;;;;18.48;11.65;;;;;;;-144.87;100.00;61487.56;4932820;29;20039;-78
2023/04/22 09:54:53;;;;;;;14.38;11.40;;;;;;;-144.87;100.00;61487.56;4917252;29;20118;-78
2023/04/22 09:57:20;;;;;;;15.18;11.55;;;;;;;-144.87;100.00;61487.56;4936592;29;20030;-77
2023/04/22 09:59:50;;;;;;;15.75;10.70;;;;;;;-144.87;100.00;61487.56;4930064;28;20047;-78
2023/04/22 10:02:16;;;;;;;12.33;11.03;;;;;;;-144.87;100.00;61487.56;4925476;29;20035;-77
2023/04/22 10:04:43;;;;;;;12.73;11.20;;;;;;;-144.87;100.00;61487.56;4915867;29;20346;-77
2023/04/22 10:07:09;;;;;;;13.38;9.77;;;;;;;-144.87;100.00;61487.56;4902686;29;20457;-77
2023/04/22 10:09:36;;;;;;;10.88;9.15;;;;;;;-144.87;100.00;61487.56;4917936;29;20146;-76
2023/04/22 10:12:02;;;;;;;12.40;9.98;;;;;;;-144.87;100.00;61487.56;4933143;29;20043;-77
2023/04/22 10:14:29;;;;;;;11.95;9.35;;;;;;;-144.87;100.00;61487.56;4951556;29;20390;-76
2023/04/22 10:16:59;;;;;;;10.77;9.43;;;;;;;-144.87;100.00;61487.56;4917453;29;20107;-76
2023/04/22 10:19:26;;;;;;;12.35;8.90;;;;;;;-144.87;100.00;61487.56;4947548;28;20035;-75
2023/04/22 10:21:58;;;;;;;15.10;11.43;;;;;;;-144.87;100.00;61487.56;4947863;29;20031;-78
2023/04/22 10:24:35;;;;;;;10.52;9.13;;;;;;;-144.87;100.00;61487.56;4935891;29;20388;-78
2023/04/22 10:27:05;;;;;;;10.77;9.63;;;;;;;-144.87;100.00;61487.56;4936256;29;20027;-77
2023/04/22 10:29:37;;;;;;;14.00;9.20;;;;;;;-144.87;100.00;61487.56;4933725;29;20487;-77
2023/04/22 10:32:24;;;;;;;14.45;9.70;;;;;;;-144.87;100.00;61487.56;4949362;29;20812;-77
2023/04/22 10:35:10;;;;;;;20.00;10.40;;;;;;;-144.87;100.00;61487.56;4948601;28;20550;-77
2023/04/22 10:37:39;;;;;;;14.43;10.13;;;;;;;-144.87;100.00;61487.56;4932172;29;20039;-78
2023/04/22 10:40:15;;;;;;;14.30;10.45;;;;;;;-144.87;100.00;61487.56;4932220;29;20034;-77
2023/04/22 10:42:52;;;;;;;13.88;10.70;;;;;;;-144.87;100.00;61487.56;4934636;29;20051;-77
2023/04/22 10:45:19;;;;;;;14.73;9.75;;;;;;;-144.87;100.00;61487.56;4937453;28;20069;-77
2023/04/22 10:47:46;;;;;;;13.23;10.77;;;;;;;-144.87;100.00;61487.56;4950298;29;20035;-78
2023/04/22 10:50:16;;;;;;;13.82;10.02;;;;;;;-144.87;100.00;61487.56;4917782;29;20465;-79
2023/04/22 10:52:48;;;;;;;11.73;9.80;;;;;;;-144.87;100.00;61487.56;4923920;29;20408;-79
2023/04/22 10:55:15;;;;;;;13.93;12.52;;;;;;;-144.87;100.00;61487.56;4931604;29;20122;-77